createdAt,value
2018-06-04T00:00:17.722Z,52.43
2018-06-04T00:02:46.225Z,56.83
2018-06-04T00:05:14.777Z,49.43
2018-06-04T00:07:42.984Z,54.03
2018-06-04T00:10:11.551Z,55.70
2018-06-04T00:12:40.131Z,54.63
2018-06-04T00:15:08.674Z,54.23
2018-06-04T00:17:37.189Z,53.13
2018-06-04T00:20:05.967Z,55.33
2018-06-04T00:22:34.562Z,55.43
2018-06-04T00:25:03.081Z,50.73
2018-06-04T00:27:31.725Z,54.80
2018-06-04T00:30:01.226Z,49.37
2018-06-04T00:32:29.784Z,50.77
2018-06-04T00:34:58.322Z,52.83
2018-06-04T00:37:26.812Z,57.33
2018-06-04T00:39:55.334Z,56.60
2018-06-04T00:42:23.909Z,52.17
2018-06-04T00:44:52.417Z,54.23
2018-06-04T00:47:21.031Z,55.97
2018-06-04T00:49:49.696Z,55.43
2018-06-04T00:52:18.202Z,51.30
2018-06-04T00:54:46.700Z,49.93
2018-06-04T00:57:15.285Z,51.97
2018-06-04T00:59:44.403Z,51.80
2018-06-04T01:02:13.040Z,53.07
2018-06-04T01:04:41.621Z,50.30
2018-06-04T01:07:10.159Z,49.13
2018-06-04T01:09:38.718Z,49.97
2018-06-04T01:12:07.224Z,46.37
2018-06-04T01:14:35.812Z,49.57
2018-06-04T01:17:04.367Z,48.23
2018-06-04T01:19:32.921Z,51.07
2018-06-04T01:22:01.502Z,49.33
2018-06-04T01:24:29.993Z,47.57
2018-06-04T01:26:59.116Z,54.17
2018-06-04T01:29:27.657Z,50.97
2018-06-04T01:31:56.265Z,45.93
2018-06-04T01:34:24.846Z,50.30
2018-06-04T01:36:53.375Z,45.03
2018-06-04T01:39:21.962Z,47.73
2018-06-04T01:41:50.562Z,47.70
2018-06-04T01:44:19.196Z,46.30
2018-06-04T01:46:47.754Z,48.50
2018-06-04T01:49:16.281Z,46.07
2018-06-04T01:51:45.823Z,46.57
2018-06-04T01:54:14.337Z,47.90
2018-06-04T01:56:42.958Z,47.43
2018-06-04T01:59:11.488Z,45.60
2018-06-04T02:01:40.089Z,45.77
2018-06-04T02:04:08.592Z,47.00
2018-06-04T02:06:38.051Z,46.43
2018-06-04T02:09:07.660Z,50.73
2018-06-04T02:11:36.265Z,46.70
2018-06-04T02:14:08.768Z,48.03
2018-06-04T02:16:37.246Z,44.23
2018-06-04T02:19:05.779Z,47.77
2018-06-04T02:21:34.366Z,48.47
2018-06-04T02:24:02.888Z,54.93
2018-06-04T02:26:31.433Z,60.37
2018-06-04T02:29:00.062Z,63.90
2018-06-04T02:31:29.374Z,62.80
2018-06-04T02:33:58.598Z,64.13
2018-06-04T02:36:27.931Z,77.67
2018-06-04T02:38:57.279Z,70.27
2018-06-04T02:41:27.516Z,69.97
2018-06-04T02:43:56.226Z,71.80
2018-06-04T02:46:25.426Z,70.10
2018-06-04T02:48:54.842Z,71.63
2018-06-04T02:51:23.626Z,77.83
2018-06-04T02:53:52.257Z,77.10
2018-06-04T02:56:20.774Z,78.80
2018-06-04T02:58:49.421Z,76.83
2018-06-04T03:01:18.501Z,76.27
2018-06-04T03:03:47.053Z,74.37
2018-06-04T03:06:15.620Z,74.40
2018-06-04T03:08:44.219Z,74.73
2018-06-04T03:11:12.866Z,73.10
2018-06-04T03:13:41.620Z,78.20
2018-06-04T03:16:10.146Z,76.90
2018-06-04T03:18:38.965Z,73.40
2018-06-04T03:21:07.589Z,77.70
2018-06-04T03:23:36.106Z,70.40
2018-06-04T03:26:04.712Z,75.90
2018-06-04T03:28:33.227Z,71.00
2018-06-04T03:31:01.442Z,77.37
2018-06-04T03:33:30.036Z,76.07
2018-06-04T03:35:58.645Z,74.90
2018-06-04T03:38:27.233Z,71.53
2018-06-04T03:40:55.743Z,73.87
2018-06-04T03:43:24.225Z,78.80
2018-06-04T03:45:52.694Z,77.30
2018-06-04T03:48:21.306Z,74.37
2018-06-04T03:50:49.517Z,72.93
2018-06-04T03:53:18.097Z,77.50
2018-06-04T03:55:46.709Z,73.57
2018-06-04T03:58:15.254Z,72.70
2018-06-04T04:00:44.106Z,69.20
2018-06-04T04:03:12.657Z,70.37
2018-06-04T04:05:41.143Z,63.47
2018-06-04T04:08:09.661Z,69.03
2018-06-04T04:10:38.227Z,64.40
2018-06-04T04:13:07.132Z,70.63
2018-06-04T04:15:36.381Z,71.70
2018-06-04T04:18:05.048Z,60.73
2018-06-04T04:20:33.672Z,67.90
2018-06-04T04:23:02.198Z,65.40
2018-06-04T04:25:31.458Z,68.90
2018-06-04T04:28:00.079Z,71.03
2018-06-04T04:30:28.559Z,69.20
2018-06-04T04:32:57.063Z,67.30
2018-06-04T04:35:25.651Z,68.17
2018-06-04T04:37:54.369Z,65.70
2018-06-04T04:40:22.915Z,65.07
2018-06-04T04:42:51.480Z,66.10
2018-06-04T04:45:20.076Z,60.13
2018-06-04T04:47:48.622Z,63.20
2018-06-04T04:50:17.332Z,65.83
2018-06-04T04:52:46.932Z,64.73
2018-06-04T04:55:15.119Z,59.50
2018-06-04T04:57:43.708Z,67.43
2018-06-04T05:00:12.273Z,59.97
2018-06-04T05:02:40.879Z,61.97
2018-06-04T05:05:09.410Z,64.37
2018-06-04T05:07:38.030Z,56.00
2018-06-04T05:10:06.551Z,63.63
2018-06-04T05:12:35.106Z,58.50
2018-06-04T05:15:03.714Z,66.00
2018-06-04T05:17:32.259Z,57.13
2018-06-04T05:20:00.829Z,56.67
2018-06-04T05:22:29.385Z,55.00
2018-06-04T05:24:58.229Z,54.70
2018-06-04T05:27:26.840Z,57.87
2018-06-04T05:29:55.362Z,60.27
2018-06-04T05:32:23.916Z,58.50
2018-06-04T05:34:52.431Z,53.53
2018-06-04T05:37:21.022Z,52.37
2018-06-04T05:39:49.615Z,57.63
2018-06-04T05:42:18.270Z,61.67
2018-06-04T05:44:46.773Z,57.20
2018-06-04T05:47:15.388Z,58.90
2018-06-04T05:49:43.944Z,51.63
2018-06-04T05:52:13.529Z,54.80
2018-06-04T05:54:42.126Z,59.30
2018-06-04T05:57:10.708Z,57.87
2018-06-04T05:59:39.257Z,56.10
2018-06-04T06:02:07.785Z,56.40
2018-06-04T06:04:36.349Z,63.40
2018-06-04T06:07:04.926Z,57.37
2018-06-04T06:09:33.377Z,58.23
2018-06-04T06:12:01.938Z,56.07
2018-06-04T06:14:30.452Z,55.60
2018-06-04T06:16:58.982Z,59.63
2018-06-04T06:19:27.535Z,56.03
2018-06-04T06:21:56.098Z,58.17
2018-06-04T06:24:25.554Z,56.43
2018-06-04T06:26:54.023Z,56.80
2018-06-04T06:29:22.518Z,59.27
2018-06-04T06:31:51.024Z,61.03
2018-06-04T06:34:19.574Z,59.10
2018-06-04T06:36:48.122Z,57.63
2018-06-04T06:39:16.653Z,55.80
2018-06-04T06:41:45.194Z,62.20
2018-06-04T06:44:13.703Z,53.97
2018-06-04T06:46:42.161Z,54.13
2018-06-04T06:49:10.664Z,58.90
2018-06-04T06:51:39.124Z,52.87
2018-06-04T06:54:07.686Z,50.17
2018-06-04T06:56:36.228Z,51.40
2018-06-04T06:59:04.816Z,50.10
2018-06-04T07:01:33.311Z,52.63
2018-06-04T07:04:01.804Z,58.03
2018-06-04T07:06:30.349Z,52.77
2018-06-04T07:08:58.811Z,50.70
2018-06-04T07:11:27.280Z,49.77
2018-06-04T07:13:55.798Z,48.20
2018-06-04T07:16:24.256Z,51.30
2018-06-04T07:18:52.774Z,48.60
2018-06-04T07:21:21.230Z,50.60
2018-06-04T07:23:49.726Z,52.60
2018-06-04T07:26:18.321Z,55.87
2018-06-04T07:28:46.816Z,52.70
2018-06-04T07:31:15.338Z,53.67
2018-06-04T07:33:43.818Z,52.73
2018-06-04T07:36:12.441Z,53.70
2018-06-04T07:38:41.272Z,52.07
2018-06-04T07:41:09.874Z,49.77
2018-06-04T07:43:38.417Z,52.70
2018-06-04T07:46:06.906Z,50.57
2018-06-04T07:48:35.506Z,52.13
2018-06-04T07:51:04.036Z,46.47
2018-06-04T07:53:32.575Z,50.83
2018-06-04T07:56:01.104Z,53.73
2018-06-04T07:58:29.633Z,47.80
2018-06-04T08:00:58.165Z,51.60
2018-06-04T08:03:26.697Z,52.53
2018-06-04T08:05:55.158Z,52.43
2018-06-04T08:08:23.629Z,51.33
2018-06-04T08:10:52.725Z,52.57
2018-06-04T08:13:21.250Z,46.97
2018-06-04T08:15:49.836Z,48.63
2018-06-04T08:18:18.451Z,50.07
2018-06-04T08:20:47.040Z,49.13
2018-06-04T08:23:15.577Z,48.40
2018-06-04T08:25:44.212Z,46.50
2018-06-04T08:28:12.787Z,49.43
2018-06-04T08:30:41.362Z,47.97
2018-06-04T08:33:09.943Z,43.10
2018-06-04T08:35:38.546Z,48.23
2018-06-04T08:38:07.048Z,49.80
2018-06-04T08:40:35.553Z,44.93
2018-06-04T08:43:04.126Z,42.57
2018-06-04T08:45:32.640Z,35.73
2018-06-04T08:48:01.116Z,37.57
2018-06-04T08:50:29.787Z,38.93
2018-06-04T08:52:58.269Z,42.77
2018-06-04T08:55:26.829Z,40.47
2018-06-04T08:57:55.388Z,44.77
2018-06-04T09:00:23.949Z,34.50
2018-06-04T09:02:52.182Z,39.17
2018-06-04T09:05:20.826Z,38.20
2018-06-04T09:07:49.383Z,33.33
2018-06-04T09:10:17.975Z,36.03
2018-06-04T09:12:46.548Z,35.07
2018-06-04T09:15:15.221Z,34.53
2018-06-04T09:17:43.812Z,35.90
2018-06-04T09:20:12.360Z,36.50
2018-06-04T09:22:40.900Z,33.73
2018-06-04T09:25:09.513Z,34.00
2018-06-04T09:27:38.088Z,36.77
2018-06-04T09:30:06.741Z,38.07
2018-06-04T09:32:35.332Z,38.23
2018-06-04T09:35:03.939Z,35.57
2018-06-04T09:37:32.556Z,40.57
2018-06-04T09:40:01.127Z,39.53
2018-06-04T09:42:29.766Z,34.57
2018-06-04T09:44:58.314Z,34.77
2018-06-04T09:47:26.523Z,32.40
2018-06-04T09:49:55.112Z,30.97
2018-06-04T09:52:23.627Z,33.73
2018-06-04T09:54:52.215Z,33.53
2018-06-04T09:57:20.755Z,35.30
2018-06-04T09:59:48.987Z,36.30
2018-06-04T10:02:17.625Z,34.43
2018-06-04T10:04:46.141Z,35.87
2018-06-04T10:07:14.801Z,32.97
2018-06-04T10:09:43.321Z,34.47
2018-06-04T10:12:13.258Z,33.63
2018-06-04T10:14:41.783Z,32.60
2018-06-04T10:17:10.362Z,32.60
2018-06-04T10:19:38.936Z,40.40
2018-06-04T10:22:07.529Z,40.50
2018-06-04T10:24:36.038Z,36.23
2018-06-04T10:27:04.295Z,39.53
2018-06-04T10:29:32.896Z,44.97
2018-06-04T10:32:01.537Z,42.87
2018-06-04T10:34:30.135Z,40.83
2018-06-04T10:36:58.665Z,35.27
2018-06-04T10:39:27.252Z,34.70
2018-06-04T10:41:55.496Z,37.07
2018-06-04T10:44:24.045Z,36.30
2018-06-04T10:46:52.684Z,36.13
2018-06-04T10:49:21.207Z,39.20
2018-06-04T10:51:49.963Z,40.03
2018-06-04T10:54:18.510Z,34.67
2018-06-04T10:56:47.050Z,34.07
2018-06-04T10:59:15.660Z,35.73
2018-06-04T11:01:44.230Z,36.27
2018-06-04T11:04:12.830Z,34.47
2018-06-04T11:06:41.429Z,35.23
2018-06-04T11:09:10.675Z,35.20
2018-06-04T11:11:39.214Z,35.93
2018-06-04T11:14:07.780Z,36.70
2018-06-04T11:16:36.368Z,40.50
2018-06-04T11:19:04.954Z,36.67
2018-06-04T11:21:33.483Z,31.63
2018-06-04T11:24:02.017Z,39.60
2018-06-04T11:26:30.612Z,36.57
2018-06-04T11:28:59.135Z,38.67
2018-06-04T11:31:27.631Z,34.37
2018-06-04T11:33:56.854Z,34.03
2018-06-04T11:36:26.078Z,35.53
2018-06-04T11:38:55.007Z,38.47
2018-06-04T11:41:23.579Z,41.17
2018-06-04T11:43:52.240Z,34.53
2018-06-04T11:46:20.796Z,36.27
2018-06-04T11:48:49.367Z,43.80
2018-06-04T11:51:17.958Z,41.47
2018-06-04T11:53:46.503Z,38.90
2018-06-04T11:56:15.071Z,42.23
2018-06-04T11:58:43.657Z,41.27
2018-06-04T12:01:12.239Z,40.20
2018-06-04T12:03:40.808Z,38.07
2018-06-04T12:06:09.410Z,57.73
2018-06-04T12:08:41.540Z,47.23
2018-06-04T12:11:10.108Z,42.57
2018-06-04T12:13:38.672Z,38.73
2018-06-04T12:16:07.184Z,37.80
2018-06-04T12:18:35.757Z,36.00
2018-06-04T12:21:04.285Z,33.50
2018-06-04T12:23:32.807Z,40.23
2018-06-04T12:26:01.337Z,40.13
2018-06-04T12:28:29.888Z,42.57
2018-06-04T12:30:58.381Z,34.23
2018-06-04T12:33:26.889Z,32.00
2018-06-04T12:35:55.427Z,29.90
2018-06-04T12:38:24.002Z,36.80
2018-06-04T12:40:52.643Z,40.07
2018-06-04T12:43:21.171Z,35.63
2018-06-04T12:45:49.702Z,40.57
2018-06-04T12:48:18.913Z,38.17
2018-06-04T12:50:47.448Z,35.47
2018-06-04T12:53:16.641Z,43.63
2018-06-04T12:55:45.200Z,35.80
2018-06-04T12:58:13.483Z,33.30
2018-06-04T13:00:41.760Z,34.30
2018-06-04T13:03:09.997Z,34.57
2018-06-04T13:05:38.537Z,29.00
2018-06-04T13:08:07.121Z,33.90
2018-06-04T13:10:35.385Z,32.17
2018-06-04T13:13:03.975Z,30.73
2018-06-04T13:15:32.530Z,28.43
2018-06-04T13:18:01.113Z,28.23
2018-06-04T13:20:29.687Z,28.23
2018-06-04T13:22:58.299Z,26.20
2018-06-04T13:25:26.854Z,27.33
2018-06-04T13:27:55.440Z,29.13
2018-06-04T13:32:59.124Z,30.07
2018-06-04T13:35:27.679Z,25.90
2018-06-04T13:37:56.215Z,25.30
2018-06-04T13:40:24.515Z,24.10
2018-06-04T13:42:53.288Z,24.53
2018-06-04T13:45:21.842Z,24.53
2018-06-04T13:47:50.417Z,24.50
2018-06-04T13:50:19.085Z,22.83
2018-06-04T13:52:47.686Z,22.97
2018-06-04T13:55:16.210Z,19.53
2018-06-04T13:57:44.843Z,22.67
2018-06-04T14:00:13.342Z,24.60
2018-06-04T14:02:41.943Z,22.23
2018-06-04T14:05:10.548Z,22.33
2018-06-04T14:07:39.176Z,24.90
2018-06-04T14:10:07.839Z,26.17
2018-06-04T14:12:36.059Z,21.10
2018-06-04T14:15:04.669Z,22.90
2018-06-04T14:17:33.257Z,22.30
2018-06-04T14:20:01.841Z,22.20
2018-06-04T14:22:30.411Z,19.87
2018-06-04T14:24:58.934Z,17.33
2018-06-04T14:27:27.689Z,18.57
2018-06-04T14:29:56.204Z,15.63
2018-06-04T14:32:25.270Z,19.13
2018-06-04T14:34:53.843Z,22.53
2018-06-04T14:37:22.679Z,20.57
2018-06-04T14:39:51.229Z,18.43
2018-06-04T14:42:19.762Z,19.53
2018-06-04T14:44:48.305Z,21.63
2018-06-04T14:47:16.893Z,16.30
2018-06-04T14:49:45.426Z,15.50
2018-06-04T14:52:13.922Z,17.57
2018-06-04T14:54:43.150Z,17.10
2018-06-04T14:57:11.663Z,16.17
2018-06-04T14:59:42.835Z,16.07
2018-06-04T15:02:11.537Z,15.90
2018-06-04T15:04:40.083Z,17.73
2018-06-04T15:07:08.593Z,17.20
2018-06-04T15:09:37.155Z,16.50
2018-06-04T15:12:05.772Z,15.60
2018-06-04T15:14:34.242Z,14.43
2018-06-04T15:17:02.750Z,13.57
2018-06-04T15:19:31.319Z,15.57
2018-06-04T15:21:59.829Z,13.80
2018-06-04T15:24:28.379Z,13.23
2018-06-04T15:26:57.758Z,13.80
2018-06-04T15:29:26.298Z,12.83
2018-06-04T15:31:54.895Z,14.07
2018-06-04T15:34:23.380Z,15.43
2018-06-04T15:36:52.032Z,13.27
2018-06-04T15:39:20.791Z,13.47
2018-06-04T15:41:48.993Z,12.90
2018-06-04T15:44:17.511Z,14.23
2018-06-04T15:46:46.017Z,12.23
2018-06-04T15:49:14.542Z,14.67
2018-06-04T15:51:43.146Z,13.07
2018-06-04T15:54:11.722Z,13.10
2018-06-04T15:56:40.994Z,14.17
2018-06-04T15:59:09.510Z,13.53
2018-06-04T16:01:38.036Z,20.23
2018-06-04T16:04:06.544Z,11.50
2018-06-04T16:06:35.056Z,11.03
2018-06-04T16:09:04.012Z,9.57
2018-06-04T16:11:32.490Z,10.17
2018-06-04T16:14:01.122Z,12.83
2018-06-04T16:16:29.806Z,12.50
2018-06-04T16:18:58.305Z,10.53
2018-06-04T16:21:27.064Z,12.83
2018-06-04T16:23:56.562Z,9.03
2018-06-04T16:26:25.210Z,8.93
2018-06-04T16:28:53.792Z,10.60
2018-06-04T16:31:22.400Z,8.70
2018-06-04T16:33:50.900Z,9.50
2018-06-04T16:36:19.375Z,9.10
2018-06-04T16:38:47.833Z,8.83
2018-06-04T16:41:16.467Z,8.87
2018-06-04T16:43:44.974Z,9.50
2018-06-04T16:46:13.451Z,8.27
2018-06-04T16:48:41.971Z,7.67
2018-06-04T16:51:10.999Z,7.93
2018-06-04T16:53:39.618Z,7.83
2018-06-04T16:56:08.115Z,7.50
2018-06-04T16:58:36.646Z,10.27
2018-06-04T17:01:05.227Z,8.47
2018-06-04T17:03:33.817Z,9.37
2018-06-04T17:06:02.338Z,9.97
2018-06-04T17:08:30.924Z,13.37
2018-06-04T17:10:59.642Z,9.93
2018-06-04T17:13:28.954Z,13.40
2018-06-04T17:15:57.480Z,10.10
2018-06-04T17:18:25.985Z,12.60
2018-06-04T17:20:55.082Z,11.93
2018-06-04T17:23:23.650Z,10.27
2018-06-04T17:25:52.533Z,9.77
2018-06-04T17:28:21.045Z,11.00
2018-06-04T17:30:49.701Z,13.83
2018-06-04T17:33:18.198Z,9.73
2018-06-04T17:35:46.733Z,9.97
2018-06-04T17:38:15.279Z,10.10
2018-06-04T17:40:43.978Z,9.17
2018-06-04T17:43:12.519Z,10.30
2018-06-04T17:45:41.012Z,9.67
2018-06-04T17:48:09.521Z,12.97
2018-06-04T17:50:38.098Z,9.43
2018-06-04T17:53:06.645Z,9.30
2018-06-04T17:55:35.175Z,10.50
2018-06-04T17:58:03.780Z,10.77
2018-06-04T18:00:32.258Z,12.37
2018-06-04T18:03:00.810Z,12.03
2018-06-04T18:05:29.328Z,12.83
2018-06-04T18:07:57.851Z,13.20
2018-06-04T18:10:26.320Z,13.70
2018-06-04T18:12:54.874Z,12.60
2018-06-04T18:15:23.377Z,13.90
2018-06-04T18:17:52.330Z,13.93
2018-06-04T18:20:20.834Z,14.03
2018-06-04T18:22:49.489Z,14.10
2018-06-04T18:25:18.373Z,13.67
2018-06-04T18:27:47.020Z,12.87
2018-06-04T18:30:15.598Z,12.47
2018-06-04T18:32:44.155Z,13.53
2018-06-04T18:35:12.789Z,13.50
2018-06-04T18:37:41.372Z,13.63
2018-06-04T18:40:09.999Z,13.30
2018-06-04T18:42:38.614Z,13.37
2018-06-04T18:45:07.195Z,14.63
2018-06-04T18:47:35.834Z,13.83
2018-06-04T18:50:04.522Z,13.20
2018-06-04T18:52:33.278Z,13.60
2018-06-04T18:55:01.960Z,13.90
2018-06-04T18:57:30.534Z,15.27
2018-06-04T18:59:59.154Z,14.30
2018-06-04T19:02:27.780Z,13.40
2018-06-04T19:04:56.346Z,14.60
2018-06-04T19:07:24.867Z,14.03
2018-06-04T19:09:53.427Z,14.20
2018-06-04T19:12:21.992Z,14.03
2018-06-04T19:14:50.587Z,14.57
2018-06-04T19:17:18.763Z,14.30
2018-06-04T19:19:47.386Z,13.60
2018-06-04T19:22:15.899Z,13.10
2018-06-04T19:24:44.419Z,15.03
2018-06-04T19:30:09.730Z,14.13
2018-06-04T19:32:38.268Z,13.33
2018-06-04T19:35:06.759Z,13.00
2018-06-04T19:37:35.341Z,13.73
2018-06-04T19:40:03.951Z,14.87
2018-06-04T19:42:32.516Z,15.07
2018-06-04T19:45:01.265Z,15.53
2018-06-04T19:47:29.866Z,13.90
2018-06-04T19:49:58.364Z,15.00
2018-06-04T19:52:26.894Z,13.70
2018-06-04T19:54:55.383Z,14.20
2018-06-04T19:57:23.890Z,13.40
2018-06-04T19:59:52.414Z,13.53
2018-06-04T20:02:20.954Z,14.67
2018-06-04T20:04:49.580Z,14.73
2018-06-04T20:07:18.101Z,15.07
2018-06-04T20:09:46.665Z,14.93
2018-06-04T20:12:15.212Z,15.30
2018-06-04T20:14:43.786Z,15.47
2018-06-04T20:17:12.010Z,14.50
2018-06-04T20:19:40.666Z,16.93
2018-06-04T20:22:09.230Z,16.00
2018-06-04T20:24:37.440Z,15.07
2018-06-04T20:27:05.617Z,15.40
2018-06-04T20:29:34.198Z,16.33
2018-06-04T20:32:02.727Z,16.37
2018-06-04T20:34:31.286Z,17.23
2018-06-04T20:36:59.915Z,17.20
2018-06-04T20:39:28.451Z,15.97
2018-06-04T20:41:56.971Z,17.60
2018-06-04T20:44:25.614Z,17.90
2018-06-04T20:46:54.205Z,17.83
2018-06-04T20:49:22.784Z,17.43
2018-06-04T20:51:51.332Z,16.87
2018-06-04T20:54:19.870Z,17.67
2018-06-04T20:56:48.387Z,17.90
2018-06-04T20:59:16.951Z,18.33
2018-06-04T21:01:45.618Z,18.73
2018-06-04T21:04:14.194Z,19.80
2018-06-04T21:06:42.752Z,19.43
2018-06-04T21:09:11.300Z,18.60
2018-06-04T21:11:39.796Z,18.73
2018-06-04T21:14:08.321Z,21.77
2018-06-04T21:16:36.938Z,19.40
2018-06-04T21:19:05.488Z,19.07
2018-06-04T21:21:34.060Z,20.03
2018-06-04T21:24:02.777Z,18.10
2018-06-04T21:26:31.319Z,19.63
2018-06-04T21:29:00.005Z,19.60
2018-06-04T21:31:28.517Z,19.60
2018-06-04T21:33:57.058Z,18.97
2018-06-04T21:36:25.615Z,20.53
2018-06-04T21:38:54.219Z,20.63
2018-06-04T21:41:22.721Z,21.33
2018-06-04T21:43:51.233Z,22.10
2018-06-04T21:46:19.734Z,20.90
2018-06-04T21:48:48.941Z,21.70
2018-06-04T21:51:17.461Z,21.83
2018-06-04T21:53:45.986Z,21.43
2018-06-04T21:56:14.557Z,21.83
2018-06-04T21:58:43.080Z,20.37
2018-06-04T22:01:11.699Z,21.70
2018-06-04T22:03:40.326Z,21.60
2018-06-04T22:06:09.023Z,21.07
2018-06-04T22:08:37.643Z,20.80
2018-06-04T22:11:06.316Z,20.70
2018-06-04T22:13:35.072Z,21.20
2018-06-04T22:16:03.664Z,21.07
2018-06-04T22:18:32.240Z,21.07
2018-06-04T22:21:00.779Z,21.03
2018-06-04T22:23:29.331Z,21.13
2018-06-04T22:25:57.874Z,19.93
2018-06-04T22:28:26.373Z,21.97
2018-06-04T22:30:55.025Z,20.43
2018-06-04T22:33:23.697Z,21.17
2018-06-04T22:35:52.327Z,21.63
2018-06-04T22:38:20.862Z,21.27
2018-06-04T22:40:49.105Z,22.43
2018-06-04T22:43:17.663Z,22.40
2018-06-04T22:45:46.081Z,23.93
2018-06-04T22:48:14.562Z,23.00
2018-06-04T22:51:01.708Z,21.57
2018-06-04T22:53:30.245Z,24.13
2018-06-04T22:55:58.881Z,24.23
2018-06-04T22:58:27.445Z,21.97
2018-06-04T23:00:55.933Z,22.00
2018-06-04T23:03:24.504Z,24.17
2018-06-04T23:05:52.993Z,23.90
2018-06-04T23:08:21.488Z,23.30
2018-06-04T23:10:50.009Z,24.03
2018-06-04T23:13:18.620Z,23.20
2018-06-04T23:15:47.187Z,23.83
2018-06-04T23:18:15.649Z,23.80
2018-06-04T23:20:44.158Z,24.13
2018-06-04T23:23:12.729Z,23.50
2018-06-04T23:25:40.868Z,23.53
2018-06-04T23:28:09.382Z,23.67
2018-06-04T23:30:37.898Z,24.03
2018-06-04T23:33:06.670Z,23.30
2018-06-04T23:35:38.192Z,23.63
2018-06-04T23:38:06.928Z,23.23
2018-06-04T23:40:35.434Z,23.23
2018-06-04T23:43:04.011Z,23.23
2018-06-04T23:45:32.504Z,24.10
2018-06-04T23:48:01.081Z,23.57
2018-06-04T23:50:29.632Z,24.67
2018-06-04T23:52:58.873Z,24.83
2018-06-04T23:55:27.405Z,23.93
2018-06-04T23:57:56.044Z,25.70
